Time;durP1;ratioP1;P1;durP2;ratioP2;P2;SDS_P1;SDS_P2;PMS_P1;PMS_P2;Temp;Humidity;BMP_temperature;BMP_pressure;BME280_temperature;BME280_humidity;BME280_pressure;Samples;Min_cycle;Max_cycle;Signal;HPM_P1;HPM_P2
2022/07/18 00:01:59;;;;;;;2.80;2.60;;;;;;;;;;5042267;28;20219;-67
2022/07/18 00:04:27;;;;;;;2.60;2.40;;;;;;;;;;5017289;28;20238;-67
2022/07/18 00:06:55;;;;;;;3.57;2.50;;;;;;;;;;5034205;28;20557;-67
2022/07/18 00:09:23;;;;;;;2.57;2.47;;;;;;;;;;5023096;28;20209;-67
2022/07/18 00:11:51;;;;;;;2.93;2.73;;;;;;;;;;5022034;28;20660;-65
2022/07/18 00:14:20;;;;;;;2.97;2.77;;;;;;;;;;5020388;28;20273;-66
2022/07/18 00:16:47;;;;;;;2.73;2.53;;;;;;;;;;5015514;28;20234;-67
2022/07/18 00:19:15;;;;;;;2.80;2.60;;;;;;;;;;5032239;28;20206;-67
2022/07/18 00:21:43;;;;;;;2.63;2.43;;;;;;;;;;5016293;28;20239;-68
2022/07/18 00:24:11;;;;;;;2.77;2.40;;;;;;;;;;5020897;28;20238;-67
2022/07/18 00:26:38;;;;;;;2.80;2.60;;;;;;;;;;5012075;28;20227;-67
2022/07/18 00:29:06;;;;;;;3.97;2.70;;;;;;;;;;5037064;28;20237;-67
2022/07/18 00:31:34;;;;;;;3.07;2.60;;;;;;;;;;5033293;28;20210;-67
2022/07/18 00:34:01;;;;;;;3.10;2.90;;;;;;;;;;5027348;28;20635;-67
2022/07/18 00:36:30;;;;;;;5.47;3.00;;;;;;;;;;5033764;28;20218;-67
2022/07/18 00:38:58;;;;;;;3.03;2.70;;;;;;;;;;5012475;28;20225;-68
2022/07/18 00:41:26;;;;;;;2.73;2.53;;;;;;;;;;5032559;28;20255;-67
2022/07/18 00:43:54;;;;;;;2.93;2.60;;;;;;;;;;5023744;28;20316;-67
2022/07/18 00:46:22;;;;;;;2.67;2.47;;;;;;;;;;5019709;28;20251;-65
2022/07/18 00:48:50;;;;;;;3.00;2.80;;;;;;;;;;5021585;28;20212;-67
2022/07/18 00:51:19;;;;;;;3.53;2.67;;;;;;;;;;5013882;28;20861;-66
2022/07/18 00:53:47;;;;;;;2.47;2.27;;;;;;;;;;5024465;28;20823;-67
2022/07/18 00:56:17;;;;;;;5.57;2.67;;;;;;;;;;5009983;28;20739;-67
2022/07/18 00:58:44;;;;;;;3.33;2.80;;;;;;;;;;5038083;28;20202;-67
2022/07/18 01:03:58;;;;;;;4.20;3.10;;;;;;;;;;5048967;28;20249;-67
2022/07/18 01:06:25;;;;;;;3.13;2.83;;;;;;;;;;5029417;28;20922;-67
2022/07/18 01:08:52;;;;;;;2.90;2.60;;;;;;;;;;5030685;28;20236;-67
2022/07/18 01:11:21;;;;;;;3.57;3.27;;;;;;;;;;5024486;28;20221;-67
2022/07/18 01:13:49;;;;;;;3.23;3.00;;;;;;;;;;5040677;28;20249;-67
2022/07/18 01:16:17;;;;;;;3.47;3.13;;;;;;;;;;5040000;28;20233;-67
2022/07/18 01:18:46;;;;;;;3.03;2.83;;;;;;;;;;5021720;28;21926;-67
2022/07/18 01:21:14;;;;;;;3.10;2.90;;;;;;;;;;5026455;28;20625;-67
2022/07/18 01:23:42;;;;;;;2.63;2.43;;;;;;;;;;5026187;28;20738;-65
2022/07/18 01:26:09;;;;;;;3.17;2.97;;;;;;;;;;5036867;28;20272;-66
2022/07/18 01:28:37;;;;;;;3.50;3.07;;;;;;;;;;5026596;28;20203;-67
2022/07/18 01:31:04;;;;;;;3.00;2.73;;;;;;;;;;5040779;28;20640;-66
2022/07/18 01:33:32;;;;;;;3.00;2.80;;;;;;;;;;5020526;28;20202;-65
2022/07/18 01:36:01;;;;;;;3.20;3.00;;;;;;;;;;5023410;28;20684;-65
2022/07/18 01:38:29;;;;;;;3.27;3.07;;;;;;;;;;5022788;28;20279;-67
2022/07/18 01:40:57;;;;;;;3.47;3.17;;;;;;;;;;5028136;28;20194;-67
2022/07/18 01:43:25;;;;;;;3.00;2.80;;;;;;;;;;5025512;28;20252;-66
2022/07/18 01:45:52;;;;;;;3.30;3.00;;;;;;;;;;5033321;28;20703;-66
2022/07/18 01:48:22;;;;;;;3.00;2.80;;;;;;;;;;5030070;28;20207;-66
2022/07/18 01:50:50;;;;;;;4.33;3.00;;;;;;;;;;5029152;28;20260;-66
2022/07/18 01:53:17;;;;;;;3.30;3.10;;;;;;;;;;5036704;28;20753;-67
2022/07/18 01:55:45;;;;;;;2.90;2.70;;;;;;;;;;5037044;28;20708;-66
2022/07/18 01:58:12;;;;;;;2.80;2.60;;;;;;;;;;5045031;28;20262;-67
2022/07/18 02:00:40;;;;;;;2.83;2.63;;;;;;;;;;5031374;28;20253;-67
2022/07/18 02:03:07;;;;;;;3.70;2.93;;;;;;;;;;5055098;28;20285;-67
2022/07/18 02:05:35;;;;;;;2.70;2.50;;;;;;;;;;5048834;28;20250;-67
2022/07/18 02:08:02;;;;;;;2.90;2.70;;;;;;;;;;5044872;28;20210;-67
2022/07/18 02:10:30;;;;;;;2.90;2.70;;;;;;;;;;5024237;28;20206;-66
2022/07/18 02:12:57;;;;;;;2.57;2.37;;;;;;;;;;5023708;28;20266;-68
2022/07/18 02:15:26;;;;;;;2.80;2.60;;;;;;;;;;5025570;28;20235;-67
2022/07/18 02:17:53;;;;;;;2.70;2.50;;;;;;;;;;5030735;28;20578;-65
2022/07/18 02:20:20;;;;;;;2.77;2.57;;;;;;;;;;5046386;28;20233;-66
2022/07/18 02:22:48;;;;;;;4.63;3.07;;;;;;;;;;5025403;28;20212;-66
2022/07/18 02:25:15;;;;;;;3.07;2.77;;;;;;;;;;5022870;28;20241;-67
2022/07/18 02:27:43;;;;;;;2.73;2.53;;;;;;;;;;5024107;28;20294;-67
2022/07/18 02:30:10;;;;;;;2.93;2.73;;;;;;;;;;5053671;28;20609;-67
2022/07/18 02:32:38;;;;;;;3.23;2.80;;;;;;;;;;5026312;28;20199;-66
2022/07/18 02:35:07;;;;;;;2.90;2.70;;;;;;;;;;5030443;28;20598;-67
2022/07/18 02:37:34;;;;;;;3.53;2.60;;;;;;;;;;5027023;28;20223;-67
2022/07/18 02:40:02;;;;;;;2.47;2.30;;;;;;;;;;5048843;28;20228;-67
2022/07/18 02:42:29;;;;;;;4.07;2.80;;;;;;;;;;5032719;28;20207;-67
2022/07/18 02:44:56;;;;;;;2.97;2.60;;;;;;;;;;5050042;28;20222;-66
2022/07/18 02:47:24;;;;;;;2.90;2.53;;;;;;;;;;5061780;28;20218;-67
2022/07/18 02:49:51;;;;;;;4.13;2.57;;;;;;;;;;5032074;28;20234;-67
2022/07/18 02:52:21;;;;;;;2.53;2.33;;;;;;;;;;5037617;28;20217;-67
2022/07/18 02:54:48;;;;;;;3.00;2.70;;;;;;;;;;5030330;28;20461;-67
2022/07/18 02:57:16;;;;;;;2.83;2.63;;;;;;;;;;5046136;28;20318;-67
2022/07/18 02:59:45;;;;;;;2.90;2.70;;;;;;;;;;5024909;28;20870;-68
2022/07/18 03:02:12;;;;;;;2.47;2.33;;;;;;;;;;5036395;28;20206;-67
2022/07/18 03:04:40;;;;;;;2.90;2.60;;;;;;;;;;5026228;28;20228;-67
2022/07/18 03:07:07;;;;;;;3.00;2.80;;;;;;;;;;5029245;28;20633;-67
2022/07/18 03:09:35;;;;;;;4.23;2.60;;;;;;;;;;5031024;28;20207;-66
2022/07/18 03:12:02;;;;;;;2.70;2.50;;;;;;;;;;5028700;28;20206;-67
2022/07/18 03:14:29;;;;;;;3.00;2.80;;;;;;;;;;5024512;28;20285;-67
2022/07/18 03:16:57;;;;;;;2.97;2.77;;;;;;;;;;5050545;28;20226;-67
2022/07/18 03:19:24;;;;;;;2.77;2.60;;;;;;;;;;5040114;28;20699;-67
2022/07/18 03:21:52;;;;;;;2.97;2.77;;;;;;;;;;5029285;28;20256;-66
2022/07/18 03:24:19;;;;;;;4.20;2.70;;;;;;;;;;5029499;28;20222;-67
2022/07/18 03:26:47;;;;;;;2.97;2.77;;;;;;;;;;5030965;28;20222;-68
2022/07/18 03:29:14;;;;;;;2.80;2.60;;;;;;;;;;5049171;28;20224;-67
2022/07/18 03:31:41;;;;;;;2.80;2.60;;;;;;;;;;5031241;28;20202;-67
2022/07/18 03:34:09;;;;;;;2.80;2.50;;;;;;;;;;5035144;28;20225;-67
2022/07/18 03:36:37;;;;;;;2.77;2.30;;;;;;;;;;5031969;28;20229;-67
2022/07/18 03:39:05;;;;;;;2.53;2.37;;;;;;;;;;5028914;28;20210;-66
2022/07/18 03:41:33;;;;;;;2.37;2.23;;;;;;;;;;5028311;28;20198;-67
2022/07/18 03:44:00;;;;;;;2.43;2.23;;;;;;;;;;5054140;28;20660;-67
2022/07/18 03:46:27;;;;;;;2.97;2.67;;;;;;;;;;5033400;28;20230;-67
2022/07/18 03:48:56;;;;;;;3.77;2.90;;;;;;;;;;5038560;28;20251;-66
2022/07/18 03:51:23;;;;;;;3.93;2.80;;;;;;;;;;5056560;28;20194;-67
2022/07/18 03:53:51;;;;;;;3.27;2.97;;;;;;;;;;5025716;28;20663;-67
2022/07/18 03:56:18;;;;;;;3.17;2.80;;;;;;;;;;5040834;28;20218;-67
2022/07/18 03:58:46;;;;;;;2.80;2.60;;;;;;;;;;5024128;28;20773;-66
2022/07/18 04:01:13;;;;;;;2.87;2.67;;;;;;;;;;5027175;28;20269;-66
2022/07/18 04:03:41;;;;;;;2.87;2.63;;;;;;;;;;5030343;28;20257;-67
2022/07/18 04:06:08;;;;;;;3.93;2.33;;;;;;;;;;5027507;28;20531;-67
2022/07/18 04:08:37;;;;;;;2.83;2.63;;;;;;;;;;5035889;28;20215;-67
2022/07/18 04:11:04;;;;;;;3.63;2.53;;;;;;;;;;5025032;28;20206;-66
2022/07/18 04:13:32;;;;;;;3.07;2.87;;;;;;;;;;5027694;28;20233;-68
2022/07/18 04:15:59;;;;;;;6.37;3.00;;;;;;;;;;5021606;28;20292;-67
2022/07/18 04:18:27;;;;;;;3.63;3.20;;;;;;;;;;5037864;28;20699;-66
2022/07/18 04:20:54;;;;;;;3.43;3.10;;;;;;;;;;5054510;28;20225;-67
2022/07/18 04:23:22;;;;;;;3.53;2.90;;;;;;;;;;5051839;28;20683;-66
2022/07/18 04:25:49;;;;;;;2.93;2.70;;;;;;;;;;5033670;28;20273;-66
2022/07/18 04:28:16;;;;;;;3.57;2.77;;;;;;;;;;5040445;28;20213;-66
2022/07/18 04:30:44;;;;;;;3.10;2.80;;;;;;;;;;5051952;28;20209;-67
2022/07/18 04:33:12;;;;;;;7.60;2.70;;;;;;;;;;5026792;28;20197;-66
2022/07/18 04:35:41;;;;;;;3.80;2.77;;;;;;;;;;5029121;28;20225;-66
2022/07/18 04:38:09;;;;;;;4.33;3.60;;;;;;;;;;5041839;28;20206;-66
2022/07/18 04:40:37;;;;;;;4.13;3.60;;;;;;;;;;5027178;28;20305;-67
2022/07/18 04:43:05;;;;;;;4.70;4.03;;;;;;;;;;5024877;28;20824;-66
2022/07/18 04:45:32;;;;;;;6.07;3.90;;;;;;;;;;5032582;28;20230;-66
2022/07/18 04:48:00;;;;;;;8.23;3.40;;;;;;;;;;5044044;28;20229;-66
2022/07/18 04:50:29;;;;;;;4.10;3.60;;;;;;;;;;5027081;28;20215;-66
2022/07/18 04:52:57;;;;;;;3.93;3.30;;;;;;;;;;5036900;28;20198;-67
2022/07/18 04:55:25;;;;;;;4.00;3.60;;;;;;;;;;5019540;28;20659;-67
2022/07/18 04:57:53;;;;;;;3.87;3.40;;;;;;;;;;5024308;28;20207;-67
2022/07/18 05:00:21;;;;;;;3.77;3.03;;;;;;;;;;5023769;28;20221;-67
2022/07/18 05:02:49;;;;;;;4.07;3.47;;;;;;;;;;5035404;28;20664;-67
2022/07/18 05:05:17;;;;;;;5.03;3.03;;;;;;;;;;5047116;28;20251;-65
2022/07/18 05:07:46;;;;;;;4.70;3.07;;;;;;;;;;5028234;28;20210;-67
2022/07/18 05:10:14;;;;;;;3.83;2.60;;;;;;;;;;5026387;28;20210;-66
2022/07/18 05:12:42;;;;;;;3.70;2.77;;;;;;;;;;5023972;28;20211;-67
2022/07/18 05:15:12;;;;;;;5.37;2.63;;;;;;;;;;5023970;28;20224;-67
2022/07/18 05:17:40;;;;;;;4.43;2.73;;;;;;;;;;5021799;28;20262;-67
2022/07/18 05:20:09;;;;;;;3.67;2.80;;;;;;;;;;5023416;28;20218;-67
2022/07/18 05:22:36;;;;;;;5.20;2.97;;;;;;;;;;5040734;28;20202;-67
2022/07/18 05:25:05;;;;;;;3.13;2.50;;;;;;;;;;5046282;28;20233;-66
2022/07/18 05:27:33;;;;;;;2.83;2.60;;;;;;;;;;5028033;28;20222;-67
2022/07/18 05:30:01;;;;;;;3.00;2.30;;;;;;;;;;5038696;28;20206;-67
2022/07/18 05:32:29;;;;;;;3.07;2.53;;;;;;;;;;5027541;28;20216;-67
2022/07/18 05:34:56;;;;;;;4.50;2.47;;;;;;;;;;5027382;28;20717;-67
2022/07/18 05:37:24;;;;;;;4.40;2.40;;;;;;;;;;5040185;28;20217;-67
2022/07/18 05:39:51;;;;;;;4.43;2.00;;;;;;;;;;5031819;28;20198;-66
2022/07/18 05:42:19;;;;;;;2.75;2.10;;;;;;;;;;5047943;28;20230;-66
2022/07/18 05:45:07;;;;;;;3.05;2.53;;;;;;;;;;5038072;28;20284;-67
2022/07/18 05:47:34;;;;;;;4.05;2.42;;;;;;;;;;5044927;28;20222;-66
2022/07/18 05:50:02;;;;;;;4.88;2.38;;;;;;;;;;5029938;28;20206;-67
2022/07/18 05:52:29;;;;;;;3.75;2.10;;;;;;;;;;5044661;28;20653;-66
2022/07/18 05:54:56;;;;;;;;;;;;;;;;;;5041065;28;20412;-68
2022/07/18 05:57:24;;;;;;;4.35;2.00;;;;;;;;;;5027363;28;19984;-67
2022/07/18 05:59:51;;;;;;;3.85;1.63;;;;;;;;;;5026724;28;20210;-68
2022/07/18 06:02:18;;;;;;;3.83;2.10;;;;;;;;;;5032291;28;20657;-67
2022/07/18 06:04:46;;;;;;;1.65;1.55;;;;;;;;;;5016553;28;20209;-66
2022/07/18 06:07:33;;;;;;;2.10;1.65;;;;;;;;;;5013139;28;20266;-66
2022/07/18 06:10:01;;;;;;;2.95;1.60;;;;;;;;;;5015908;28;20206;-66
2022/07/18 06:12:30;;;;;;;1.63;1.40;;;;;;;;;;5009547;28;20707;-66
2022/07/18 06:14:58;;;;;;;2.20;1.60;;;;;;;;;;5027042;28;20199;-65
2022/07/18 06:17:27;;;;;;;2.53;1.50;;;;;;;;;;5019727;28;20960;-67
2022/07/18 06:19:55;;;;;;;2.20;1.30;;;;;;;;;;5024617;28;20206;-66
2022/07/18 06:22:23;;;;;;;1.63;1.52;;;;;;;;;;5040275;28;20313;-65
2022/07/18 06:24:50;;;;;;;2.00;1.60;;;;;;;;;;5039003;28;20213;-66
2022/07/18 06:27:18;;;;;;;2.35;1.60;;;;;;;;;;5048856;28;20746;-65
2022/07/18 06:29:45;;;;;;;2.85;1.80;;;;;;;;;;5037672;28;20056;-67
2022/07/18 06:32:13;;;;;;;2.45;1.55;;;;;;;;;;5034128;28;20250;-66
2022/07/18 06:34:40;;;;;;;3.90;1.63;;;;;;;;;;5034998;28;20202;-66
2022/07/18 06:37:08;;;;;;;2.17;1.42;;;;;;;;;;5024796;28;20232;-67
2022/07/18 06:39:35;;;;;;;2.00;1.60;;;;;;;;;;5014891;28;20262;-65
2022/07/18 06:42:03;;;;;;;2.15;1.95;;;;;;;;;;5015003;28;20679;-67
2022/07/18 06:44:30;;;;;;;1.98;1.45;;;;;;;;;;5000778;28;20256;-67
2022/07/18 06:46:59;;;;;;;2.55;1.70;;;;;;;;;;5022889;28;20256;-66
2022/07/18 06:49:26;;;;;;;1.95;1.58;;;;;;;;;;5039167;28;20299;-68
2022/07/18 06:51:53;;;;;;;2.70;1.80;;;;;;;;;;5041144;28;20210;-66
2022/07/18 06:54:28;;;;;;;3.95;1.90;;;;;;;;;;5028589;28;20884;-66
2022/07/18 06:56:55;;;;;;;2.20;1.80;;;;;;;;;;5020592;28;20234;-68
2022/07/18 06:59:23;;;;;;;4.03;2.08;;;;;;;;;;5021529;28;20272;-66
2022/07/18 07:01:50;;;;;;;2.30;2.08;;;;;;;;;;5025082;28;20221;-67
2022/07/18 07:04:18;;;;;;;3.00;1.92;;;;;;;;;;5017695;28;20218;-67
2022/07/18 07:06:45;;;;;;;3.38;2.00;;;;;;;;;;5010232;28;20241;-67
2022/07/18 07:09:13;;;;;;;2.63;1.98;;;;;;;;;;5012013;28;20210;-68
2022/07/18 07:11:40;;;;;;;2.67;2.00;;;;;;;;;;5009329;28;20202;-67
2022/07/18 07:14:08;;;;;;;3.05;2.05;;;;;;;;;;5028243;28;20209;-69
2022/07/18 07:16:35;;;;;;;2.25;2.10;;;;;;;;;;5007614;28;20226;-67
2022/07/18 07:19:03;;;;;;;4.47;2.08;;;;;;;;;;5007924;28;20659;-67
2022/07/18 07:21:31;;;;;;;1.73;1.63;;;;;;;;;;5027501;28;20477;-66
2022/07/18 07:23:59;;;;;;;3.28;1.70;;;;;;;;;;5030425;28;20298;-67
2022/07/18 07:26:26;;;;;;;3.55;1.60;;;;;;;;;;5027519;28;20234;-67
2022/07/18 07:28:55;;;;;;;2.65;1.70;;;;;;;;;;5031401;28;20206;-67
2022/07/18 07:31:22;;;;;;;4.68;1.65;;;;;;;;;;5040911;28;20213;-68
2022/07/18 07:33:50;;;;;;;1.48;1.38;;;;;;;;;;5021197;28;20210;-67
2022/07/18 07:36:18;;;;;;;1.83;1.65;;;;;;;;;;5036567;28;20244;-67
2022/07/18 07:38:45;;;;;;;1.85;1.75;;;;;;;;;;5007911;28;20643;-68
2022/07/18 07:41:15;;;;;;;3.92;1.63;;;;;;;;;;5032737;28;20233;-68
2022/07/18 07:43:43;;;;;;;1.70;1.60;;;;;;;;;;5009616;28;20222;-68
2022/07/18 07:46:11;;;;;;;3.90;1.85;;;;;;;;;;5018825;28;20420;-66
2022/07/18 07:48:39;;;;;;;2.38;1.50;;;;;;;;;;5022850;28;20210;-67
2022/07/18 07:51:07;;;;;;;1.80;1.70;;;;;;;;;;5029943;28;20203;-66
2022/07/18 07:53:34;;;;;;;4.38;1.58;;;;;;;;;;5054284;28;20194;-67
2022/07/18 07:56:02;;;;;;;2.78;1.58;;;;;;;;;;5034116;28;20280;-66
2022/07/18 07:58:29;;;;;;;1.58;1.48;;;;;;;;;;5047105;28;20214;-65
2022/07/18 08:00:56;;;;;;;1.60;1.50;;;;;;;;;;5058746;28;20210;-66
2022/07/18 08:03:24;;;;;;;1.60;1.50;;;;;;;;;;5018339;28;20256;-67
2022/07/18 08:05:51;;;;;;;2.38;1.60;;;;;;;;;;5020891;28;20338;-65
2022/07/18 08:08:19;;;;;;;3.90;1.73;;;;;;;;;;5021426;28;20202;-67
2022/07/18 08:10:47;;;;;;;1.40;1.40;;;;;;;;;;5022211;28;20209;-67
2022/07/18 08:13:15;;;;;;;1.50;1.40;;;;;;;;;;5018067;28;20244;-66
2022/07/18 08:15:42;;;;;;;2.90;1.58;;;;;;;;;;5020029;28;20760;-68
2022/07/18 08:18:10;;;;;;;2.95;1.63;;;;;;;;;;5009261;28;20755;-68
2022/07/18 08:20:37;;;;;;;1.65;1.55;;;;;;;;;;5000192;28;20214;-68
2022/07/18 08:23:06;;;;;;;1.85;1.70;;;;;;;;;;5030997;28;20691;-68
2022/07/18 08:25:35;;;;;;;4.43;1.70;;;;;;;;;;5017493;28;20227;-68
2022/07/18 08:28:03;;;;;;;2.97;1.40;;;;;;;;;;5033889;28;20198;-68
2022/07/18 08:30:31;;;;;;;3.35;1.63;;;;;;;;;;5006034;28;20691;-68
2022/07/18 08:32:59;;;;;;;1.73;1.63;;;;;;;;;;5030099;28;20672;-69
2022/07/18 08:35:27;;;;;;;1.42;1.27;;;;;;;;;;5022040;28;20268;-68
2022/07/18 08:37:54;;;;;;;4.45;1.80;;;;;;;;;;5030332;28;20618;-68
2022/07/18 08:40:22;;;;;;;1.98;1.50;;;;;;;;;;5039490;28;20198;-68
2022/07/18 08:42:53;;;;;;;3.67;1.80;;;;;;;;;;5040714;28;20214;-68
2022/07/18 08:45:42;;;;;;;2.35;1.55;;;;;;;;;;5014516;28;20432;-69
2022/07/18 08:48:10;;;;;;;3.05;1.60;;;;;;;;;;5014106;28;20210;-68
2022/07/18 08:50:37;;;;;;;4.05;1.60;;;;;;;;;;5026762;28;20234;-68
2022/07/18 08:53:05;;;;;;;3.30;1.55;;;;;;;;;;5021826;28;20210;-70
2022/07/18 08:55:32;;;;;;;1.75;1.40;;;;;;;;;;5028116;28;20206;-68
2022/07/18 08:58:00;;;;;;;2.95;1.48;;;;;;;;;;5018276;28;20198;-68
2022/07/18 09:00:47;;;;;;;1.83;1.38;;;;;;;;;;5021511;28;20205;-68
2022/07/18 09:03:15;;;;;;;1.60;1.50;;;;;;;;;;5020099;28;20204;-68
2022/07/18 09:05:43;;;;;;;2.35;1.30;;;;;;;;;;5036568;28;20249;-68
2022/07/18 09:08:17;;;;;;;3.35;1.38;;;;;;;;;;5018589;28;20202;-68
2022/07/18 09:10:49;;;;;;;2.10;1.60;;;;;;;;;;5012441;28;20237;-69
2022/07/18 09:13:17;;;;;;;1.60;1.50;;;;;;;;;;5020463;28;20259;-68
2022/07/18 09:15:58;;;;;;;1.40;1.30;;;;;;;;;;5011500;28;20719;-69
2022/07/18 09:18:31;;;;;;;1.52;1.42;;;;;;;;;;5027912;28;20214;-69
2022/07/18 09:21:14;;;;;;;1.80;1.40;;;;;;;;;;5026308;28;20260;-69
2022/07/18 09:23:44;;;;;;;1.60;1.50;;;;;;;;;;5012750;28;20233;-68
2022/07/18 09:26:12;;;;;;;2.17;1.73;;;;;;;;;;5011049;28;20237;-68
2022/07/18 09:29:06;;;;;;;3.53;1.33;;;;;;;;;;5021455;28;20209;-67
2022/07/18 09:31:54;;;;;;;1.63;1.40;;;;;;;;;;5020666;28;20230;-68
2022/07/18 09:34:35;;;;;;;2.38;1.58;;;;;;;;;;5040498;28;20213;-68
2022/07/18 09:37:03;;;;;;;1.38;1.25;;;;;;;;;;5038204;28;20226;-69
2022/07/18 09:39:33;;;;;;;2.92;1.40;;;;;;;;;;5021765;28;20260;-68
2022/07/18 09:42:14;;;;;;;2.92;1.70;;;;;;;;;;5021108;28;20210;-68
2022/07/18 09:44:41;;;;;;;3.63;1.60;;;;;;;;;;5023539;28;20214;-67
2022/07/18 09:47:09;;;;;;;2.38;1.40;;;;;;;;;;5019254;28;20238;-68
2022/07/18 09:49:40;;;;;;;1.55;1.45;;;;;;;;;;5021069;28;20291;-68
2022/07/18 09:52:10;;;;;;;1.40;1.30;;;;;;;;;;5033406;28;20198;-69
2022/07/18 09:54:38;;;;;;;3.08;1.80;;;;;;;;;;5056918;28;20201;-68
2022/07/18 09:57:06;;;;;;;2.65;1.50;;;;;;;;;;5053174;28;20230;-68
2022/07/18 09:59:34;;;;;;;2.47;1.40;;;;;;;;;;5044756;28;20232;-68
2022/07/18 10:02:03;;;;;;;1.60;1.50;;;;;;;;;;5026298;28;20963;-68
2022/07/18 10:04:30;;;;;;;1.45;1.35;;;;;;;;;;5026628;28;20215;-68
2022/07/18 10:06:59;;;;;;;1.45;1.30;;;;;;;;;;5005333;28;20233;-68
2022/07/18 10:09:26;;;;;;;3.88;1.60;;;;;;;;;;5010460;28;20202;-68
2022/07/18 10:11:54;;;;;;;1.30;1.20;;;;;;;;;;5014392;28;20580;-68
2022/07/18 10:14:27;;;;;;;1.20;1.10;;;;;;;;;;5024589;28;20229;-68
2022/07/18 10:16:55;;;;;;;1.33;1.25;;;;;;;;;;5012629;28;20241;-68
2022/07/18 10:19:23;;;;;;;1.25;1.25;;;;;;;;;;5012058;28;20214;-68
2022/07/18 10:21:50;;;;;;;1.45;1.35;;;;;;;;;;5019341;28;20232;-68
2022/07/18 10:24:18;;;;;;;4.57;1.42;;;;;;;;;;5014673;28;20214;-69
2022/07/18 10:27:06;;;;;;;2.60;1.52;;;;;;;;;;5016570;28;20238;-67
2022/07/18 10:29:33;;;;;;;1.52;1.30;;;;;;;;;;5016098;28;20202;-68
2022/07/18 10:32:03;;;;;;;1.42;1.40;;;;;;;;;;5000402;28;20203;-69
2022/07/18 10:34:34;;;;;;;1.40;1.30;;;;;;;;;;4993409;28;20206;-69
2022/07/18 10:37:03;;;;;;;1.75;1.30;;;;;;;;;;4998720;28;21107;-68
2022/07/18 10:39:34;;;;;;;1.58;1.40;;;;;;;;;;5013577;28;20218;-68
2022/07/18 10:42:02;;;;;;;2.20;1.30;;;;;;;;;;5030402;28;20688;-66
2022/07/18 10:44:29;;;;;;;1.40;1.30;;;;;;;;;;5006019;28;20206;-69
2022/07/18 10:47:20;;;;;;;1.42;1.40;;;;;;;;;;5004658;28;20234;-67
2022/07/18 10:49:48;;;;;;;1.10;1.10;;;;;;;;;;5021923;28;20221;-67
2022/07/18 10:52:28;;;;;;;2.22;1.25;;;;;;;;;;5003735;28;20700;-68
2022/07/18 10:55:05;;;;;;;1.90;1.67;;;;;;;;;;5004810;28;20214;-68
2022/07/18 10:57:34;;;;;;;1.60;1.50;;;;;;;;;;5007026;28;20316;-68
2022/07/18 11:00:08;;;;;;;1.30;1.20;;;;;;;;;;5002847;28;20567;-68
2022/07/18 11:02:37;;;;;;;2.47;1.50;;;;;;;;;;5007885;28;20199;-68
2022/07/18 11:05:24;;;;;;;2.05;1.33;;;;;;;;;;5026773;28;20205;-68
2022/07/18 11:07:58;;;;;;;1.73;1.50;;;;;;;;;;5010332;28;20658;-68
2022/07/18 11:10:44;;;;;;;1.60;1.30;;;;;;;;;;4999482;28;20202;-68
2022/07/18 11:13:27;;;;;;;1.50;1.40;;;;;;;;;;5003232;28;20121;-68
2022/07/18 11:15:58;;;;;;;1.45;1.25;;;;;;;;;;5009635;28;20376;-68
2022/07/18 11:18:26;;;;;;;2.72;1.40;;;;;;;;;;5002869;28;22255;-68
2022/07/18 11:20:54;;;;;;;1.35;1.27;;;;;;;;;;5022659;28;20606;-68
2022/07/18 11:23:24;;;;;;;2.10;1.20;;;;;;;;;;5009719;28;20253;-67
2022/07/18 11:25:54;;;;;;;1.67;1.50;;;;;;;;;;5008698;28;20585;-68
2022/07/18 11:28:25;;;;;;;1.67;1.50;;;;;;;;;;5031110;28;20679;-68
2022/07/18 11:30:59;;;;;;;2.20;1.45;;;;;;;;;;5020806;28;20198;-67
2022/07/18 11:33:29;;;;;;;1.38;1.27;;;;;;;;;;5011099;28;20653;-68
2022/07/18 11:36:04;;;;;;;1.67;1.58;;;;;;;;;;4994797;28;20242;-67
2022/07/18 11:38:32;;;;;;;1.60;1.10;;;;;;;;;;5005043;28;20211;-67
2022/07/18 11:40:59;;;;;;;1.52;1.42;;;;;;;;;;5016546;28;20198;-67
2022/07/18 11:43:27;;;;;;;1.42;1.33;;;;;;;;;;5009653;28;20221;-67
2022/07/18 11:46:06;;;;;;;2.25;1.30;;;;;;;;;;5013138;28;20239;-68
2022/07/18 11:48:43;;;;;;;2.95;1.45;;;;;;;;;;5016569;28;20213;-69
2022/07/18 11:51:12;;;;;;;1.88;1.60;;;;;;;;;;5005468;28;21677;-67
2022/07/18 11:53:48;;;;;;;1.67;1.33;;;;;;;;;;5035791;28;20562;-68
2022/07/18 11:56:16;;;;;;;1.50;1.40;;;;;;;;;;5018054;28;20246;-68
2022/07/18 11:58:44;;;;;;;3.45;1.45;;;;;;;;;;5023751;28;20202;-68
2022/07/18 12:01:12;;;;;;;2.53;1.40;;;;;;;;;;5041326;28;20217;-69
2022/07/18 12:03:44;;;;;;;2.35;1.50;;;;;;;;;;5014580;28;21305;-68
2022/07/18 12:06:12;;;;;;;3.05;1.52;;;;;;;;;;5030936;28;20317;-69
2022/07/18 12:08:44;;;;;;;1.60;1.50;;;;;;;;;;5026159;28;20640;-67
2022/07/18 12:11:30;;;;;;;1.85;1.50;;;;;;;;;;5008586;28;20618;-68
2022/07/18 12:14:01;;;;;;;1.40;1.30;;;;;;;;;;5008080;28;20198;-68
2022/07/18 12:16:36;;;;;;;1.63;1.52;;;;;;;;;;5015382;28;20253;-68
2022/07/18 12:19:10;;;;;;;1.65;1.55;;;;;;;;;;5015708;28;20215;-67
2022/07/18 12:21:47;;;;;;;3.25;1.42;;;;;;;;;;5015736;28;20202;-68
2022/07/18 12:24:22;;;;;;;2.95;1.55;;;;;;;;;;4998427;28;23044;-69
2022/07/18 12:27:18;;;;;;;3.00;1.40;;;;;;;;;;5011107;28;20231;-67
2022/07/18 12:29:55;;;;;;;1.58;1.48;;;;;;;;;;4989465;28;20269;-68
2022/07/18 12:32:26;;;;;;;1.77;1.67;;;;;;;;;;5008500;28;20210;-67
2022/07/18 12:34:55;;;;;;;1.33;1.23;;;;;;;;;;5014342;28;20213;-67
2022/07/18 12:37:26;;;;;;;1.35;1.25;;;;;;;;;;5025739;28;20230;-68
2022/07/18 12:40:21;;;;;;;1.83;1.30;;;;;;;;;;5004430;28;20413;-69
2022/07/18 12:43:04;;;;;;;3.83;1.73;;;;;;;;;;4988621;28;21066;-71
2022/07/18 12:45:31;;;;;;;2.75;1.40;;;;;;;;;;5019396;28;20225;-68
2022/07/18 12:47:59;;;;;;;1.40;1.30;;;;;;;;;;5025367;28;20574;-68
2022/07/18 12:50:26;;;;;;;2.45;1.60;;;;;;;;;;5018572;28;20056;-70
2022/07/18 12:52:53;;;;;;;1.55;1.45;;;;;;;;;;5023700;28;20198;-67
2022/07/18 12:55:22;;;;;;;1.58;1.48;;;;;;;;;;5038230;28;20664;-70
2022/07/18 12:57:57;;;;;;;4.32;1.60;;;;;;;;;;5024218;28;20210;-69
2022/07/18 13:00:24;;;;;;;1.48;1.42;;;;;;;;;;5018177;28;20563;-68
2022/07/18 13:02:55;;;;;;;2.83;1.63;;;;;;;;;;5003407;28;20210;-68
2022/07/18 13:05:23;;;;;;;4.57;1.40;;;;;;;;;;5007542;28;20214;-71
2022/07/18 13:07:51;;;;;;;1.58;1.30;;;;;;;;;;4999847;28;20280;-69
2022/07/18 13:10:18;;;;;;;4.28;2.97;;;;;;;;;;5001931;28;20614;-68
2022/07/18 13:12:45;;;;;;;3.45;2.88;;;;;;;;;;5003521;28;20214;-69
2022/07/18 13:15:20;;;;;;;4.13;2.92;;;;;;;;;;5011589;28;20457;-69
2022/07/18 13:17:51;;;;;;;2.00;1.63;;;;;;;;;;5032680;28;20222;-70
2022/07/18 13:20:19;;;;;;;6.18;1.75;;;;;;;;;;5019643;28;20210;-69
2022/07/18 13:22:46;;;;;;;3.58;2.30;;;;;;;;;;5020532;28;20236;-69
2022/07/18 13:25:20;;;;;;;2.90;1.73;;;;;;;;;;5001508;28;20686;-67
2022/07/18 13:27:47;;;;;;;2.03;1.83;;;;;;;;;;5008899;28;20842;-67
2022/07/18 13:30:15;;;;;;;3.30;1.67;;;;;;;;;;5023362;28;20202;-68
2022/07/18 13:32:44;;;;;;;2.05;1.48;;;;;;;;;;5017872;28;20234;-68
2022/07/18 13:35:13;;;;;;;1.67;1.58;;;;;;;;;;5008368;28;20242;-68
2022/07/18 13:37:40;;;;;;;2.30;1.40;;;;;;;;;;5003742;28;20691;-68
2022/07/18 13:40:09;;;;;;;2.08;1.70;;;;;;;;;;5010731;28;20211;-70
2022/07/18 13:42:37;;;;;;;1.92;1.70;;;;;;;;;;5009405;28;20215;-70
2022/07/18 13:45:05;;;;;;;1.55;1.30;;;;;;;;;;5014796;28;20265;-69
2022/07/18 13:47:32;;;;;;;2.00;1.50;;;;;;;;;;5020320;28;20265;-68
2022/07/18 13:50:00;;;;;;;2.05;1.60;;;;;;;;;;5018507;28;20206;-68
2022/07/18 13:52:27;;;;;;;4.22;1.58;;;;;;;;;;5050101;28;20204;-68
2022/07/18 13:54:54;;;;;;;2.55;1.65;;;;;;;;;;5041638;28;20214;-67
2022/07/18 13:57:23;;;;;;;2.33;1.55;;;;;;;;;;5024958;28;20230;-68
2022/07/18 13:59:50;;;;;;;1.65;1.55;;;;;;;;;;5022608;28;20206;-68
2022/07/18 14:02:18;;;;;;;;;;;;;;;;;;5022448;28;20064;-70
2022/07/18 14:04:45;;;;;;;;;;;;;;;;;;5016158;28;20314;-68
2022/07/18 14:07:32;;;;;;;;;;;;;;;;;;5022193;28;19924;-68
2022/07/18 14:10:00;;;;;;;;;;;;;;;;;;5020257;28;19929;-68
2022/07/18 14:12:27;;;;;;;;;;;;;;;;;;5017074;28;19928;-68
2022/07/18 14:14:54;;;;;;;;;;;;;;;;;;5015694;28;19975;-69
2022/07/18 14:17:22;;;;;;;;;;;;;;;;;;5011914;28;19932;-68
2022/07/18 14:19:49;;;;;;;;;;;;;;;;;;5018179;28;19929;-69
2022/07/18 14:22:17;;;;;;;;;;;;;;;;;;5011441;28;20338;-67
2022/07/18 14:24:44;;;;;;;;;;;;;;;;;;5003591;28;19925;-68
2022/07/18 14:27:11;;;;;;;;;;;;;;;;;;5002058;28;20325;-69
2022/07/18 14:29:38;;;;;;;;;;;;;;;;;;5009958;28;20233;-68
2022/07/18 14:32:06;;;;;;;1.65;1.55;;;;;;;;;;5008659;28;19937;-71
2022/07/18 14:34:34;;;;;;;2.40;1.42;;;;;;;;;;5019422;28;20219;-69
2022/07/18 14:37:01;;;;;;;1.90;1.60;;;;;;;;;;5008290;28;20649;-69
2022/07/18 14:39:30;;;;;;;2.15;1.52;;;;;;;;;;5021807;28;20439;-67
2022/07/18 14:41:57;;;;;;;1.65;1.42;;;;;;;;;;5024801;28;20656;-68
2022/07/18 14:44:26;;;;;;;4.50;1.70;;;;;;;;;;5044035;28;20245;-69
2022/07/18 14:46:54;;;;;;;2.15;1.42;;;;;;;;;;5026700;28;20819;-66
2022/07/18 14:49:22;;;;;;;1.90;1.70;;;;;;;;;;5027744;28;20198;-68
2022/07/18 14:51:49;;;;;;;1.70;1.45;;;;;;;;;;5025055;28;20202;-67
2022/07/18 14:54:22;;;;;;;1.58;1.40;;;;;;;;;;5018546;28;20209;-69
2022/07/18 14:56:50;;;;;;;2.05;1.40;;;;;;;;;;5022445;28;22109;-69
2022/07/18 14:59:18;;;;;;;4.53;1.60;;;;;;;;;;5020080;28;20204;-70
2022/07/18 15:01:45;;;;;;;2.17;1.83;;;;;;;;;;5039924;28;20214;-68
2022/07/18 15:04:14;;;;;;;2.40;1.95;;;;;;;;;;5027174;28;20210;-69